Meteorología y climatología de Navarra
Datos de la estación - Meteo Navarra

Estación de Eltzaburu GN

Altitud 588 m.


Datos desde el 26/03/2020 hasta el 27/03/2020 en horario solar
Los datos son PROVISIONALES

Anterior Página 1 de 1 Siguiente Descargar: Formato para Excel 2000 o superior   Formato csv   Formato para OpenOffice Calc
Fecha Temperatura Humedad relativa Radiación global Insolación Precipitación Vel. viento 10 m Vel. viento 10 m Dir. viento 10 m
ºC % W/m² s l/m² m/s km/h º
26/03/2020 0:00 3.9 81 0.0 0 0.0 0.8 3.0 340
26/03/2020 0:10 4.0 81 0.0 0 0.0 0.8 2.9 299
26/03/2020 0:20 4.2 82 0.0 0 0.0 1.0 3.6 327
26/03/2020 0:30 4.4 82 0.0 0 0.0 1.0 3.6 301
26/03/2020 0:40 4.5 83 0.0 0 0.0 0.3 1.2 293
26/03/2020 0:50 4.6 83 0.0 0 0.0 0.7 2.5 9
26/03/2020 1:00 4.8 84 0.0 0 0.0 1.3 4.8 287
26/03/2020 1:10 4.5 86 0.0 0 0.0 0.8 2.7 224
26/03/2020 1:20 4.0 89 0.0 0 0.0 0.5 1.8 53
26/03/2020 1:30 3.7 90 0.0 0 0.0 1.0 3.5 248
26/03/2020 1:40 4.4 92 0.0 0 0.0 1.4 5.0 297
26/03/2020 1:50 4.8 92 0.0 0 0.0 1.6 5.8 274
26/03/2020 2:00 4.9 91 0.0 0 0.0 1.3 4.8 278
26/03/2020 2:10 4.9 91 0.0 0 0.1 1.0 3.5 296
26/03/2020 2:20 5.1 92 0.0 0 0.0 1.6 5.8 270
26/03/2020 2:30 5.2 92 0.0 0 0.0 1.0 3.7 294
26/03/2020 2:40 5.3 92 0.0 0 0.5 1.3 4.8 299
26/03/2020 2:50 5.7 90 0.0 0 0.0 2.4 8.5 327
26/03/2020 3:00 6.2 85 0.0 0 0.1 3.0 10.7 331
26/03/2020 3:10 6.2 84 0.0 0 0.0 2.3 8.1 338
26/03/2020 3:20 6.3 83 0.0 0 0.0 2.8 10.0 337
26/03/2020 3:30 6.1 82 0.0 0 0.0 2.2 8.0 332
26/03/2020 3:40 6.2 81 0.0 0 0.0 2.3 8.3 346
26/03/2020 3:50 6.2 80 0.0 0 0.0 2.3 8.4 340
26/03/2020 4:00 6.2 79 0.0 0 0.0 2.0 7.3 336
26/03/2020 4:10 6.2 77 0.0 0 0.0 1.7 5.9 351
26/03/2020 4:20 6.3 74 0.0 0 0.0 2.6 9.5 342
26/03/2020 4:30 6.2 72 0.0 0 0.0 3.5 12.4 345
26/03/2020 4:40 6.2 71 0.0 0 0.0 3.2 11.6 337
26/03/2020 4:50 6.2 71 0.0 0 0.0 3.0 10.8 342
26/03/2020 5:00 6.2 70 0.0 0 0.0 3.4 12.3 332
26/03/2020 5:10 6.2 69 0.0 0 0.0 4.4 15.8 336
26/03/2020 5:20 6.3 68 0.0 0 0.0 4.0 14.3 336
26/03/2020 5:30 6.1 69 0.0 0 0.0 3.6 12.8 345
26/03/2020 5:40 6.1 68 0.0 0 0.0 4.6 16.7 340
26/03/2020 5:50 6.2 66 0.0 0 0.0 4.5 16.1 340
26/03/2020 6:00 6.1 66 0.0 0 0.0 4.9 17.6 339
26/03/2020 6:10 6.1 66 0.0 0 0.0 4.9 17.7 332
26/03/2020 6:20 6.0 66 0.0 0 0.0 4.5 16.2 345
26/03/2020 6:30 5.9 67 12.3 0 0.0 4.2 15.3 345
26/03/2020 6:40 6.0 67 32.3 0 0.0 4.7 16.9 345
26/03/2020 6:50 6.0 66 45.2 0 0.0 5.9 21.2 337
26/03/2020 7:00 6.1 66 54.9 0 0.0 4.5 16.3 340
26/03/2020 7:10 6.0 67 67.7 0 0.0 3.7 13.3 345
26/03/2020 7:20 6.0 67 55.4 0 0.0 4.6 16.5 344
26/03/2020 7:30 6.1 66 49.2 0 0.0 5.0 18.0 332
26/03/2020 7:40 6.2 66 109.4 56 0.0 4.4 16.0 346
26/03/2020 7:50 6.2 66 86.9 4 0.0 4.6 16.7 339
26/03/2020 8:00 6.1 65 143.5 88 0.0 5.2 18.5 340
26/03/2020 8:10 6.2 61 214.8 194 0.0 6.8 24.3 338
26/03/2020 8:20 6.3 58 234.9 272 0.0 6.2 22.1 340
26/03/2020 8:30 6.1 58 160.1 54 0.0 5.7 20.5 345
26/03/2020 8:40 6.0 61 153.2 48 0.0 5.3 19.2 351
26/03/2020 8:50 5.6 68 366.6 330 0.0 5.1 18.5 341
26/03/2020 9:00 5.9 67 539.5 562 0.0 5.7 20.4 350
26/03/2020 9:10 6.0 65 426.7 346 0.0 5.2 18.5 342
26/03/2020 9:20 6.0 64 595.8 592 0.0 5.9 21.4 347
26/03/2020 9:30 6.3 61 611.8 556 0.0 5.8 20.8 350
26/03/2020 9:40 6.3 60 604.7 526 0.0 6.3 22.8 351
26/03/2020 9:50 6.2 61 524.6 424 0.0 5.4 19.5 347
26/03/2020 10:00 6.6 60 681.0 562 0.0 5.8 20.9 344
26/03/2020 10:10 6.7 57 621.8 482 0.0 6.0 21.7 343
26/03/2020 10:20 6.7 56 700.8 528 0.0 6.2 22.5 345
26/03/2020 10:30 6.8 54 791.6 600 0.0 6.3 22.8 339
26/03/2020 10:40 6.9 53 797.6 590 0.0 5.5 19.8 342
26/03/2020 10:50 7.1 51 817.0 600 0.0 4.7 16.9 350
26/03/2020 11:00 7.0 52 821.0 600 0.0 6.2 22.4 339
26/03/2020 11:10 6.9 49 841.0 600 0.0 6.2 22.4 341
26/03/2020 11:20 7.4 46 841.0 600 0.0 5.0 17.9 326
26/03/2020 11:30 7.4 47 821.0 574 0.0 5.4 19.4 331
26/03/2020 11:40 7.4 45 841.0 582 0.0 4.1 14.9 337
26/03/2020 11:50 7.5 43 797.2 550 0.0 4.5 16.2 327
26/03/2020 12:00 7.7 41 856.0 600 0.0 3.7 13.2 325
26/03/2020 12:10 7.5 40 849.0 600 0.0 4.8 17.1 307
26/03/2020 12:20 7.6 40 854.0 600 0.0 4.2 15.1 302
26/03/2020 12:30 7.7 41 840.0 600 0.0 4.8 17.2 296
26/03/2020 12:40 7.9 42 834.0 600 0.0 4.3 15.6 288
26/03/2020 12:50 8.3 40 848.0 600 0.0 4.2 15.0 327
26/03/2020 13:00 8.1 39 865.0 600 0.0 4.3 15.3 312
26/03/2020 13:10 8.1 40 862.0 576 0.0 3.3 11.7 309
26/03/2020 13:20 8.4 40 871.0 600 0.0 3.8 13.6 302
26/03/2020 13:30 8.2 39 858.0 600 0.0 4.4 15.8 297
26/03/2020 13:40 8.2 39 838.0 588 0.0 4.4 15.9 319
26/03/2020 13:50 7.9 39 786.7 572 0.0 5.0 18.1 302
26/03/2020 14:00 7.9 34 785.2 600 0.0 4.4 15.9 313
26/03/2020 14:10 8.0 36 763.4 600 0.0 4.2 15.2 328
26/03/2020 14:20 7.7 34 739.4 600 0.0 5.3 19.1 333
26/03/2020 14:30 7.6 36 717.5 600 0.0 5.0 18.0 322
26/03/2020 14:40 7.5 36 693.1 600 0.0 5.1 18.3 320
26/03/2020 14:50 7.6 37 661.6 600 0.0 4.9 17.7 337
26/03/2020 15:00 7.6 37 640.6 600 0.0 5.3 19.2 337
26/03/2020 15:10 7.3 41 614.3 600 0.0 4.1 14.8 325
26/03/2020 15:20 7.8 39 586.4 600 0.0 3.8 13.8 328
26/03/2020 15:30 7.2 40 559.4 600 0.0 5.7 20.6 323
26/03/2020 15:40 7.3 43 537.9 600 0.0 4.0 14.4 311
26/03/2020 15:50 7.2 42 505.4 600 0.0 4.6 16.5 309
26/03/2020 16:00 7.2 44 491.1 600 0.0 4.1 14.8 305
26/03/2020 16:10 7.3 44 473.7 600 0.0 4.3 15.3 312
26/03/2020 16:20 7.4 45 407.4 600 0.0 3.1 11.2 344
26/03/2020 16:30 7.1 42 356.8 600 0.0 4.4 15.9 330
26/03/2020 16:40 6.6 43 307.4 600 0.0 3.9 14.0 317
26/03/2020 16:50 6.5 44 222.4 476 0.0 3.2 11.4 342
26/03/2020 17:00 6.1 44 181.5 426 0.0 4.5 16.3 353
26/03/2020 17:10 5.8 47 130.8 326 0.0 3.5 12.7 345
26/03/2020 17:20 5.7 47 110.4 320 0.0 2.6 9.3 327
26/03/2020 17:30 5.7 48 85.9 246 0.0 2.9 10.3 323
26/03/2020 17:40 5.3 49 40.7 0 0.0 2.5 9.1 329
26/03/2020 17:50 5.3 49 66.8 560 0.0 2.2 8.1 323
26/03/2020 18:00 5.3 49 44.9 478 0.0 2.5 9.1 316
26/03/2020 18:10 4.8 52 7.9 0 0.0 2.6 9.5 302
26/03/2020 18:20 4.4 55 0.0 0 0.0 2.1 7.7 312
26/03/2020 18:30 4.3 56 0.0 0 0.0 1.5 5.3 322
26/03/2020 18:40 4.1 57 0.0 0 0.0 2.0 7.3 331
26/03/2020 18:50 4.1 57 0.0 0 0.0 1.6 5.7 339
26/03/2020 19:00 3.8 59 0.0 0 0.0 1.8 6.4 345
26/03/2020 19:10 3.7 60 0.0 0 0.0 1.6 5.8 336
26/03/2020 19:20 3.4 61 0.0 0 0.0 1.5 5.3 337
26/03/2020 19:30 3.3 62 0.0 0 0.0 1.5 5.5 343
26/03/2020 19:40 3.2 62 0.0 0 0.0 1.7 5.9 343
26/03/2020 19:50 3.1 62 0.0 0 0.0 1.7 6.0 343
26/03/2020 20:00 3.0 62 0.0 0 0.0 1.4 5.2 335
26/03/2020 20:10 3.0 63 0.0 0 0.0 0.7 2.6 337
26/03/2020 20:20 2.5 65 0.0 0 0.0 0.5 1.8 213
26/03/2020 20:30 2.5 66 0.0 0 0.0 0.6 2.1 309
26/03/2020 20:40 2.3 66 0.0 0 0.0 1.2 4.3 332
26/03/2020 20:50 2.2 67 0.0 0 0.0 0.4 1.3 10
26/03/2020 21:00 2.2 68 0.0 0 0.0 0.7 2.4 288
26/03/2020 21:10 1.9 69 0.0 0 0.0 0.4 1.6 296
26/03/2020 21:20 1.6 71 0.0 0 0.0 0.3 1.0 239
26/03/2020 21:30 1.8 71 0.0 0 0.0 0.4 1.4 248
26/03/2020 21:40 2.0 71 0.0 0 0.0 0.7 2.4 88
26/03/2020 21:50 2.0 74 0.0 0 0.0 0.4 1.6 259
26/03/2020 22:00 1.0 77 0.0 0 0.0 1.1 4.1 312
26/03/2020 22:10 0.9 76 0.0 0 0.0 1.8 6.3 328
26/03/2020 22:20 1.2 75 0.0 0 0.0 1.0 3.7 329
26/03/2020 22:30 1.2 75 0.0 0 0.0 0.7 2.7 331
26/03/2020 22:40 0.9 76 0.0 0 0.0 1.5 5.3 333
26/03/2020 22:50 0.6 77 0.0 0 0.0 1.2 4.5 336
26/03/2020 23:00 0.7 77 0.0 0 0.0 1.0 3.7 315
26/03/2020 23:10 0.4 79 0.0 0 0.0 1.3 4.7 322
26/03/2020 23:20 0.3 79 0.0 0 0.0 1.3 4.6 321
26/03/2020 23:30 -0.2 81 0.0 0 0.0 1.0 3.7 325
26/03/2020 23:40 -0.4 83 0.0 0 0.0 1.0 3.4 339
26/03/2020 23:50 -0.8 84 0.0 0 0.0 1.3 4.8 314
Anterior Página 1 de 1 Siguiente

NOTA: Tipo de datos según el color:
   - Valores diarios o 10 minutos correctos
   - Valores diarios calculados a partir de un número de datos 10 minutos menor que 144 y mayor que 120, o de un número de datos semihorarios menor que 48 y mayor que 40 (caso de las estaciones de INTIA y del Ministerio)
   - Valores diez minutos estimados


Contacto        Enlaces        Aviso legal